To NAV CANADA Home Page Login to a new session Search on AWWS site Disclaimer Vers la page française équivalente Tips FAQ What's new on the site To the Forecasts and Observations / NOTAM section To "File a Flight Plan" website Publications and other links Update of the User's profile FIC Telephone Numbers My Weather Data Folder Route Weather Data Regional Weather Data Local Weather Data To the Forecasts and Observations / NOTAM section
Request Generated 11/13/2018 at 18:17:24 UTC . Weather information available at that time is displayed.

METAR/TAF

CALGARY/SPRINGBANK/AB    (show WxCam)

METAR CYBW 131800Z AUTO 36008KT 9SM BKN190 BKN210 05/M04 A3009 RMK SLP238=
METAR CYBW 131700Z AUTO 31004KT 270V040 9SM OVC160 05/M04 A3011 RMK SLP241=
METAR CYBW 131600Z AUTO 34007KT 9SM BKN160 BKN180 02/M04 A3010 RMK SLP239=

TAF CYBW 131738Z 1318/1405 31005KT P6SM BKN160 BKN220
BECMG 1318/1319 27015G25KT
BECMG 1322/1324 27010KT
RMK FCST BASED ON AUTO OBS. NXT FCST BY 140000Z=
Your time UTC time
Weather data provided by Environment Canada and NAV CANADA